Aviation Digital Data Service (ADDS)

Output produced by METARs form (0545 UTC 09 February 2016)
found at http://www.aviationweather.gov/adds/metars/
 
METAR text: EPBY 090530Z 21010KT CAVOK 06/02 Q0996
Conditions at: EPBY (BYDGOSZCZ , PL) observed 0530 UTC 09 February 2016
Temperature: 6.0°C (43°F)
Dewpoint: 2.0°C (36°F) [RH = 75%]
Pressure (altimeter): 29.41 inches Hg (996.0 mb)
Winds: from the SSW (210 degrees) at 12 MPH (10 knots; 5.2 m/s)
Visibility: 6 or more miles (10+ km)
Ceiling: ceiling and visibility are OK
Clouds: unknown
Weather: no significant weather observed at this time

Forecast for: EPBY (BYDGOSZCZ , PL)
Text: TAF EPBY 090530Z 0906/1006 20010KT 9999 BKN020
Forecast period: 0600 UTC 09 February 2016 to 0600 UTC 10 February 2016
Forecast type: FROM: standard forecast or significant change
Winds: from the SSW (200 degrees) at 12 MPH (10 knots; 5.2 m/s)
Visibility: 6 or more miles (10+ km)
Ceiling: 2000 feet AGL
Clouds: broken clouds at 2000 feet AGL
Weather: no significant weather forecast for this period
Forecast for: EPBY (BYDGOSZCZ , PL)
Text: TAF EPBY 090530Z 0906/1006 20010KT 9999 BKN020
Forecast period: 0600 UTC 09 February 2016 to 0600 UTC 10 February 2016
Forecast type: FROM: standard forecast or significant change
Winds: from the SSW (200 degrees) at 12 MPH (10 knots; 5.2 m/s)
Visibility: 6 or more miles (10+ km)
Ceiling: 2000 feet AGL
Clouds: broken clouds at 2000 feet AGL
Weather: no significant weather forecast for this period
Forecast for: EPBY (BYDGOSZCZ , PL)
Text: TAF EPBY 090530Z 0906/1006 20010KT 9999 BKN020
Forecast period: 0600 to 1000 UTC 09 February 2016
Forecast type: TEMPORARY: The following changes expected for less than half the time period
Winds: from the SSW (200 degrees) at 21 MPH (18 knots; 9.4 m/s)
gusting to 32 MPH (28 knots; 14.6 m/s)
Ceiling: 2000 feet AGL
Clouds: broken clouds at 2000 feet AGL
Weather: SHRA  (rain showers)
Forecast for: EPBY (BYDGOSZCZ , PL)
Text: TAF EPBY 090530Z 0906/1006 20010KT 9999 BKN020
Forecast period: 0600 to 1000 UTC 09 February 2016
Forecast type: TEMPORARY: The following changes expected for less than half the time period
Winds: from the SSW (200 degrees) at 21 MPH (18 knots; 9.4 m/s)
gusting to 32 MPH (28 knots; 14.6 m/s)
Ceiling: 2000 feet AGL
Clouds: broken clouds at 2000 feet AGL
Weather: SHRA  (rain showers)
Forecast for: EPBY (BYDGOSZCZ , PL)
Text: TAF EPBY 090530Z 0906/1006 20010KT 9999 BKN020
Forecast period: 1000 to 1600 UTC 09 February 2016
Forecast type: TEMPORARY: The following changes expected for less than half the time period
Winds: from the SSW (200 degrees) at 21 MPH (18 knots; 9.4 m/s)
gusting to 37 MPH (32 knots; 16.6 m/s)
Weather: no significant weather forecast for this period
Forecast for: EPBY (BYDGOSZCZ , PL)
Text: TAF EPBY 090530Z 0906/1006 20010KT 9999 BKN020
Forecast period: 1000 to 1600 UTC 09 February 2016
Forecast type: TEMPORARY: The following changes expected for less than half the time period
Winds: from the SSW (200 degrees) at 21 MPH (18 knots; 9.4 m/s)
gusting to 37 MPH (32 knots; 16.6 m/s)
Weather: no significant weather forecast for this period
Forecast for: EPBY (BYDGOSZCZ , PL)
Text: TAF EPBY 090530Z 0906/1006 20010KT 9999 BKN020
Forecast period: 1900 UTC 09 February 2016 to 0400 UTC 10 February 2016
Forecast type: TEMPORARY: The following changes expected for less than half the time period
Winds: from the SSW (200 degrees) at 21 MPH (18 knots; 9.4 m/s)
gusting to 34 MPH (30 knots; 15.6 m/s)
Ceiling: 1400 feet AGL
Clouds: broken clouds at 1400 feet AGL
Weather: RA  (rain)
Forecast for: EPBY (BYDGOSZCZ , PL)
Text: TAF EPBY 090530Z 0906/1006 20010KT 9999 BKN020
Forecast period: 1900 UTC 09 February 2016 to 0400 UTC 10 February 2016
Forecast type: TEMPORARY: The following changes expected for less than half the time period
Winds: from the SSW (200 degrees) at 21 MPH (18 knots; 9.4 m/s)
gusting to 34 MPH (30 knots; 15.6 m/s)
Ceiling: 1400 feet AGL
Clouds: broken clouds at 1400 feet AGL
Weather: RA  (rain)